Time,TemperatureF,DewpointF,PressureIn,WindDirection,WindDirectionDegrees,WindSpeedMPH,WindSpeedGustMPH,Humidity,HourlyPrecipIn,Conditions,Clouds,dailyrainin,SoftwareType,DateUTC
2013-05-18 00:01:00,72.7,62.8,29.88,SSE,157,4.9,4.9,71,-99.99,,,0.00,wxRedirect v1.1,2013-05-18 05:01:00,
2013-05-18 00:06:00,72.7,62.8,29.88,South,180,3.1,4.9,71,-99.99,,,0.00,wxRedirect v1.1,2013-05-18 05:06:00,
2013-05-18 00:12:00,72.5,63.0,29.88,SSE,157,4.0,4.9,72,-99.99,,,0.00,wxRedirect v1.1,2013-05-18 05:12:00,
2013-05-18 00:17:00,72.5,63.0,29.87,SSE,157,2.2,7.4,72,-99.99,,,0.00,wxRedirect v1.1,2013-05-18 05:17:00,
2013-05-18 00:22:00,72.3,63.2,29.88,SSE,157,0.9,7.4,73,-99.99,,,0.00,wxRedirect v1.1,2013-05-18 05:22:00,
2013-05-18 00:28:00,72.3,63.2,29.88,SSE,157,0.7,3.4,73,-99.99,,,0.00,wxRedirect v1.1,2013-05-18 05:28:00,
2013-05-18 00:33:00,72.3,63.2,29.88,SSE,157,2.0,3.1,73,-99.99,,,0.00,wxRedirect v1.1,2013-05-18 05:33:00,
2013-05-18 00:39:00,72.3,63.6,29.87,SSE,157,3.1,3.1,74,-99.99,,,0.00,wxRedirect v1.1,2013-05-18 05:39:00,
2013-05-18 00:44:00,72.1,63.4,29.87,SE,135,2.9,3.1,74,-99.99,,,0.00,wxRedirect v1.1,2013-05-18 05:44:00,
2013-05-18 00:49:00,72.1,63.4,29.87,SSE,157,0.0,3.1,74,-99.99,,,0.00,wxRedirect v1.1,2013-05-18 05:49:00,
2013-05-18 00:54:00,72.1,63.8,29.87,ESE,112,1.3,2.9,75,-99.99,,,0.00,wxRedirect v1.1,2013-05-18 05:54:00,
2013-05-18 01:05:00,72.1,63.8,29.88,ESE,112,0.0,1.3,75,-99.99,,,0.00,wxRedirect v1.1,2013-05-18 06:05:00,
2013-05-18 01:11:00,72.0,64.0,29.87,SE,135,3.1,3.1,76,-99.99,,,0.00,wxRedirect v1.1,2013-05-18 06:11:00,
2013-05-18 01:16:00,72.0,64.0,29.88,SSE,157,0.0,3.1,76,-99.99,,,0.00,wxRedirect v1.1,2013-05-18 06:16:00,
2013-05-18 01:22:00,71.8,63.8,29.88,SE,135,0.0,3.1,76,-99.99,,,0.00,wxRedirect v1.1,2013-05-18 06:22:00,
2013-05-18 01:27:00,71.8,64.2,29.88,SE,135,0.0,0.0,77,-99.99,,,0.00,wxRedirect v1.1,2013-05-18 06:27:00,
2013-05-18 01:33:00,71.8,64.2,29.88,SSE,157,0.0,0.0,77,-99.99,,,0.00,wxRedirect v1.1,2013-05-18 06:33:00,
2013-05-18 01:38:00,71.8,64.2,29.88,East,90,0.0,0.0,77,-99.99,,,0.00,wxRedirect v1.1,2013-05-18 06:38:00,
2013-05-18 01:43:00,71.8,64.2,29.88,SSE,157,1.8,1.8,77,-99.99,,,0.00,wxRedirect v1.1,2013-05-18 06:43:00,
2013-05-18 01:49:00,71.8,64.2,29.88,SE,135,2.9,2.9,77,-99.99,,,0.00,wxRedirect v1.1,2013-05-18 06:49:00,
2013-05-18 01:54:00,71.4,63.8,29.88,SSE,157,0.0,2.9,77,-99.99,,,0.00,wxRedirect v1.1,2013-05-18 06:54:00,
2013-05-18 02:00:00,71.4,63.8,29.88,SSE,157,1.1,2.9,77,-99.99,,,0.00,wxRedirect v1.1,2013-05-18 07:00:00,
2013-05-18 02:05:00,71.4,63.8,29.87,SSE,157,0.7,3.6,77,-99.99,,,0.00,wxRedirect v1.1,2013-05-18 07:05:00,
2013-05-18 02:10:00,71.2,64.0,29.87,SSE,157,3.1,3.6,78,-99.99,,,0.00,wxRedirect v1.1,2013-05-18 07:10:00,
2013-05-18 02:16:00,71.2,64.0,29.87,SE,135,2.0,3.1,78,-99.99,,,0.00,wxRedirect v1.1,2013-05-18 07:16:00,
2013-05-18 02:21:00,71.2,64.0,29.88,SSE,157,3.1,3.4,78,-99.99,,,0.00,wxRedirect v1.1,2013-05-18 07:21:00,
2013-05-18 02:26:00,71.2,64.0,29.87,ESE,112,0.0,3.4,78,-99.99,,,0.00,wxRedirect v1.1,2013-05-18 07:26:00,
2013-05-18 02:32:00,71.1,63.8,29.87,ESE,112,3.1,3.1,78,-99.99,,,0.00,wxRedirect v1.1,2013-05-18 07:32:00,
2013-05-18 02:37:00,70.9,64.0,29.87,SSE,157,4.3,4.3,79,-99.99,,,0.00,wxRedirect v1.1,2013-05-18 07:37:00,
2013-05-18 02:42:00,70.9,64.0,29.86,ESE,112,0.0,5.4,79,-99.99,,,0.00,wxRedirect v1.1,2013-05-18 07:42:00,
2013-05-18 02:47:00,70.9,64.4,29.86,ESE,112,0.7,5.4,80,-99.99,,,0.00,wxRedirect v1.1,2013-05-18 07:47:00,
2013-05-18 02:53:00,70.9,64.4,29.86,ESE,112,0.7,0.9,80,-99.99,,,0.00,wxRedirect v1.1,2013-05-18 07:53:00,
2013-05-18 02:58:00,70.9,64.4,29.86,SSE,157,1.3,1.8,80,-99.99,,,0.00,wxRedirect v1.1,2013-05-18 07:58:00,
2013-05-18 03:03:00,70.9,64.4,29.85,SE,135,0.2,1.8,80,-99.99,,,0.00,wxRedirect v1.1,2013-05-18 08:03:00,
2013-05-18 03:08:00,70.9,64.4,29.85,SE,135,0.2,1.3,84,-99.99,,,0.00,wxRedirect v1.1,2013-05-18 08:08:00,
2013-05-18 03:13:00,70.9,64.4,29.86,North,-999,-999.0,-999.0,84,-99.99,,,0.00,wxRedirect v1.1,2013-05-18 08:13:00,
2013-05-18 03:18:00,70.9,64.7,29.86,ESE,112,0.0,3.4,81,-99.99,,,0.00,wxRedirect v1.1,2013-05-18 08:18:00,
2013-05-18 03:23:00,70.9,64.7,29.85,SE,135,2.2,2.2,81,-99.99,,,0.00,wxRedirect v1.1,2013-05-18 08:23:00,
2013-05-18 05:50:00,70.5,65.1,29.83,North,-999,-999.0,-999.0,87,-99.99,,,0.00,wxRedirect v1.1,2013-05-18 10:50:00,
2013-05-18 05:56:00,70.5,65.4,29.83,ESE,112,0.0,2.9,84,-99.99,,,0.00,wxRedirect v1.1,2013-05-18 10:56:00,
2013-05-18 06:01:00,70.5,65.4,29.83,South,180,7.8,7.8,84,-99.99,,,0.00,wxRedirect v1.1,2013-05-18 11:01:00,
2013-05-18 06:07:00,70.5,65.4,29.83,ESE,112,3.4,7.8,84,-99.99,,,0.00,wxRedirect v1.1,2013-05-18 11:07:00,
2013-05-18 06:12:00,70.5,65.4,29.83,ESE,112,3.4,7.8,84,-99.99,,,0.00,wxRedirect v1.1,2013-05-18 11:12:00,
2013-05-18 06:18:00,70.3,65.2,29.83,ESE,112,3.8,3.8,84,-99.99,,,0.00,wxRedirect v1.1,2013-05-18 11:18:00,
2013-05-18 06:23:00,70.3,65.2,29.82,SE,135,3.4,3.8,84,-99.99,,,0.00,wxRedirect v1.1,2013-05-18 11:23:00,
2013-05-18 06:28:00,70.3,65.6,29.83,SSE,157,3.8,4.3,85,-99.99,,,0.00,wxRedirect v1.1,2013-05-18 11:28:00,
2013-05-18 06:33:00,70.3,65.6,29.83,SSE,157,7.2,7.2,85,-99.99,,,0.00,wxRedirect v1.1,2013-05-18 11:33:00,
2013-05-18 06:39:00,70.3,65.6,29.83,SE,135,6.5,7.2,85,-99.99,,,0.00,wxRedirect v1.1,2013-05-18 11:39:00,
2013-05-18 06:44:00,70.3,65.6,29.83,South,180,3.6,6.5,85,-99.99,,,0.00,wxRedirect v1.1,2013-05-18 11:44:00,
2013-05-18 06:50:00,70.3,65.6,29.83,North,-999,-999.0,-999.0,85,-99.99,,,0.00,wxRedirect v1.1,2013-05-18 11:50:00,
2013-05-18 06:55:00,70.3,65.6,29.83,ESE,112,4.3,7.2,85,-99.99,,,0.00,wxRedirect v1.1,2013-05-18 11:55:00,
2013-05-18 07:00:00,70.3,65.6,29.83,SSE,157,4.9,7.2,85,-99.99,,,0.00,wxRedirect v1.1,2013-05-18 12:00:00,
2013-05-18 07:05:00,70.3,65.6,29.83,North,-999,-999.0,-999.0,85,-99.99,,,0.00,wxRedirect v1.1,2013-05-18 12:05:00,
2013-05-18 07:11:00,70.3,65.6,29.83,SSE,157,5.1,7.2,85,-99.99,,,0.00,wxRedirect v1.1,2013-05-18 12:11:00,
2013-05-18 07:16:00,70.3,65.6,29.83,South,180,4.7,6.5,85,-99.99,,,0.00,wxRedirect v1.1,2013-05-18 12:16:00,
2013-05-18 07:22:00,70.3,65.6,29.83,SSE,157,5.6,6.9,85,-99.99,,,0.00,wxRedirect v1.1,2013-05-18 12:22:00,
2013-05-18 07:27:00,70.3,65.6,29.83,SSE,157,13.0,13.0,85,-99.99,,,0.00,wxRedirect v1.1,2013-05-18 12:27:00,
2013-05-18 07:33:00,70.3,65.9,29.83,SSE,157,4.0,13.0,86,-99.99,,,0.00,wxRedirect v1.1,2013-05-18 12:33:00,
2013-05-18 07:39:00,70.5,66.1,29.83,South,180,8.3,8.3,86,-99.99,,,0.00,wxRedirect v1.1,2013-05-18 12:39:00,
2013-05-18 07:44:00,70.5,66.1,29.84,SSE,157,11.4,11.4,86,-99.99,,,0.00,wxRedirect v1.1,2013-05-18 12:44:00,
2013-05-18 07:49:00,70.7,66.3,29.84,SSE,157,7.4,11.4,86,-99.99,,,0.00,wxRedirect v1.1,2013-05-18 12:49:00,
2013-05-18 07:54:00,70.9,66.5,29.84,South,180,8.7,11.4,86,-99.99,,,0.00,wxRedirect v1.1,2013-05-18 12:54:00,
2013-05-18 07:59:00,71.1,66.3,29.84,SSE,157,3.8,8.7,85,-99.99,,,0.00,wxRedirect v1.1,2013-05-18 12:59:00,
2013-05-18 08:05:00,71.2,66.5,29.84,SSE,157,6.3,8.7,85,-99.99,,,0.00,wxRedirect v1.1,2013-05-18 13:05:00,
2013-05-18 08:10:00,71.2,66.5,29.84,North,-999,-999.0,-999.0,85,-99.99,,,0.00,wxRedirect v1.1,2013-05-18 13:10:00,
2013-05-18 08:15:00,71.2,66.5,29.84,SSE,157,8.3,13.9,85,-99.99,,,0.00,wxRedirect v1.1,2013-05-18 13:15:00,
2013-05-18 08:20:00,71.2,66.5,29.84,SSE,157,6.0,13.9,85,-99.99,,,0.00,wxRedirect v1.1,2013-05-18 13:20:00,
2013-05-18 08:25:00,71.2,66.5,29.84,SSE,157,4.9,8.3,85,-99.99,,,0.00,wxRedirect v1.1,2013-05-18 13:25:00,
2013-05-18 08:30:00,71.4,66.7,29.83,ESE,112,3.4,6.0,85,-99.99,,,0.00,wxRedirect v1.1,2013-05-18 13:30:00,
2013-05-18 08:36:00,71.4,66.7,29.83,East,90,4.7,4.9,85,-99.99,,,0.00,wxRedirect v1.1,2013-05-18 13:36:00,
2013-05-18 08:41:00,71.4,66.7,29.83,South,180,7.4,7.4,85,-99.99,,,0.00,wxRedirect v1.1,2013-05-18 13:41:00,
2013-05-18 08:47:00,71.4,66.7,29.83,SSE,157,2.9,7.4,85,-99.99,,,0.00,wxRedirect v1.1,2013-05-18 13:47:00,
2013-05-18 08:52:00,71.4,66.7,29.83,ESE,112,5.6,7.4,85,-99.99,,,0.00,wxRedirect v1.1,2013-05-18 13:52:00,
2013-05-18 08:58:00,71.4,66.7,29.83,North,-999,-999.0,-999.0,85,-99.99,,,0.00,wxRedirect v1.1,2013-05-18 13:58:00,
2013-05-18 09:03:00,71.4,66.7,29.83,South,180,6.5,8.5,85,-99.99,,,0.00,wxRedirect v1.1,2013-05-18 14:03:00,
2013-05-18 09:09:00,71.6,66.8,29.83,North,-999,-999.0,-999.0,85,-99.99,,,0.00,wxRedirect v1.1,2013-05-18 14:09:00,
2013-05-18 09:14:00,71.8,67.0,29.83,SSE,157,7.6,8.3,85,-99.99,,,0.00,wxRedirect v1.1,2013-05-18 14:14:00,
2013-05-18 09:19:00,71.8,67.0,29.83,SSE,157,3.8,7.6,85,-99.99,,,0.00,wxRedirect v1.1,2013-05-18 14:19:00,
2013-05-18 09:24:00,72.0,67.2,29.83,SSE,157,7.6,7.6,85,-99.99,,,0.00,wxRedirect v1.1,2013-05-18 14:24:00,
2013-05-18 09:30:00,72.1,67.4,29.83,SE,135,3.1,7.6,85,-99.99,,,0.00,wxRedirect v1.1,2013-05-18 14:30:00,
2013-05-18 09:35:00,72.1,67.4,29.83,SE,135,10.3,10.3,85,-99.99,,,0.00,wxRedirect v1.1,2013-05-18 14:35:00,
2013-05-18 09:40:00,72.3,67.6,29.82,South,180,8.1,10.3,85,-99.99,,,0.00,wxRedirect v1.1,2013-05-18 14:40:00,
2013-05-18 09:45:00,72.3,67.6,29.82,SE,135,6.3,10.3,85,-99.99,,,0.00,wxRedirect v1.1,2013-05-18 14:45:00,
2013-05-18 09:50:00,72.5,67.7,29.82,SSE,157,7.2,8.7,85,-99.99,,,0.00,wxRedirect v1.1,2013-05-18 14:50:00,
2013-05-18 09:56:00,72.7,67.6,29.82,SSE,157,3.8,11.6,84,-99.99,,,0.00,wxRedirect v1.1,2013-05-18 14:56:00,
2013-05-18 10:01:00,72.9,67.7,29.82,SSE,157,8.9,11.6,84,-99.99,,,0.00,wxRedirect v1.1,2013-05-18 15:01:00,
2013-05-18 10:07:00,73.0,67.9,29.83,SSE,157,3.6,11.0,84,-99.99,,,0.00,wxRedirect v1.1,2013-05-18 15:07:00,
2013-05-18 10:12:00,73.0,67.9,29.82,SSE,157,8.5,8.9,84,-99.99,,,0.00,wxRedirect v1.1,2013-05-18 15:12:00,
2013-05-18 10:17:00,73.0,67.9,29.83,SSE,157,6.7,8.5,84,-99.99,,,0.00,wxRedirect v1.1,2013-05-18 15:17:00,
2013-05-18 10:23:00,73.2,68.1,29.83,SSE,157,13.2,13.2,84,-99.99,,,0.00,wxRedirect v1.1,2013-05-18 15:23:00,
2013-05-18 10:28:00,73.2,68.1,29.83,SE,135,3.6,13.6,84,-99.99,,,0.00,wxRedirect v1.1,2013-05-18 15:28:00,
2013-05-18 10:33:00,73.6,68.5,29.83,SSE,157,10.7,13.6,84,-99.99,,,0.00,wxRedirect v1.1,2013-05-18 15:33:00,
2013-05-18 10:38:00,73.8,68.6,29.82,SSE,157,12.8,12.8,84,-99.99,,,0.00,wxRedirect v1.1,2013-05-18 15:38:00,
2013-05-18 10:43:00,73.9,68.8,29.82,SSE,157,2.7,12.8,84,-99.99,,,0.00,wxRedirect v1.1,2013-05-18 15:43:00,
2013-05-18 10:49:00,74.1,69.0,29.82,SSE,157,4.0,12.8,84,-99.99,,,0.00,wxRedirect v1.1,2013-05-18 15:49:00,
2013-05-18 10:54:00,74.7,69.5,29.82,South,180,4.9,6.7,84,-99.99,,,0.00,wxRedirect v1.1,2013-05-18 15:54:00,
2013-05-18 10:59:00,74.7,69.5,29.82,North,-999,-999.0,-999.0,84,-99.99,,,0.00,wxRedirect v1.1,2013-05-18 15:59:00,
2013-05-18 11:05:00,75.7,69.5,29.82,South,180,12.5,12.5,81,-99.99,,,0.00,wxRedirect v1.1,2013-05-18 16:05:00,
2013-05-18 11:10:00,76.6,70.0,29.82,SE,135,3.8,12.5,80,-99.99,,,0.00,wxRedirect v1.1,2013-05-18 16:10:00,
2013-05-18 11:15:00,76.8,69.4,29.83,SE,135,6.0,12.5,78,-99.99,,,0.00,wxRedirect v1.1,2013-05-18 16:15:00,
2013-05-18 11:21:00,76.8,69.4,29.83,SSW,202,9.4,12.8,78,-99.99,,,0.00,wxRedirect v1.1,2013-05-18 16:21:00,
2013-05-18 11:26:00,76.6,69.2,29.84,South,180,14.1,14.1,78,-99.99,,,0.00,wxRedirect v1.1,2013-05-18 16:26:00,
2013-05-18 11:31:00,76.6,69.2,29.83,SSE,157,12.5,14.1,78,-99.99,,,0.00,wxRedirect v1.1,2013-05-18 16:31:00,
2013-05-18 11:37:00,76.8,69.4,29.83,North,-999,-999.0,-999.0,78,-99.99,,,0.00,wxRedirect v1.1,2013-05-18 16:37:00,
2013-05-18 11:42:00,76.8,69.0,29.83,South,180,5.1,12.5,77,-99.99,,,0.00,wxRedirect v1.1,2013-05-18 16:42:00,
2013-05-18 11:47:00,77.0,69.6,29.83,SSE,157,12.8,12.8,78,-99.99,,,0.00,wxRedirect v1.1,2013-05-18 16:47:00,
2013-05-18 11:52:00,77.2,69.4,29.83,South,180,7.6,12.8,77,-99.99,,,0.00,wxRedirect v1.1,2013-05-18 16:52:00,
2013-05-18 11:58:00,77.2,69.4,29.83,SSE,157,8.7,12.8,77,-99.99,,,0.00,wxRedirect v1.1,2013-05-18 16:58:00,
2013-05-18 12:03:00,77.4,69.5,29.83,SSE,157,14.5,14.5,77,-99.99,,,0.00,wxRedirect v1.1,2013-05-18 17:03:00,
2013-05-18 12:08:00,77.5,69.3,29.83,SSE,157,6.3,14.5,76,-99.99,,,0.00,wxRedirect v1.1,2013-05-18 17:08:00,
2013-05-18 12:13:00,77.7,69.7,29.82,South,180,6.0,14.5,76,-99.99,,,0.00,wxRedirect v1.1,2013-05-18 17:13:00,
2013-05-18 12:19:00,78.4,70.2,29.82,South,180,3.1,10.1,76,-99.99,,,0.00,wxRedirect v1.1,2013-05-18 17:19:00,
2013-05-18 12:24:00,78.6,70.0,29.82,SE,135,4.3,10.1,75,-99.99,,,0.00,wxRedirect v1.1,2013-05-18 17:24:00,
2013-05-18 12:29:00,79.0,69.9,29.81,SE,135,4.5,4.5,74,-99.99,,,0.00,wxRedirect v1.1,2013-05-18 17:29:00,
2013-05-18 12:35:00,79.0,69.9,29.81,South,180,14.1,14.1,74,-99.99,,,0.00,wxRedirect v1.1,2013-05-18 17:35:00,
2013-05-18 12:40:00,79.0,69.9,29.81,SSE,157,4.3,14.1,74,-99.99,,,0.00,wxRedirect v1.1,2013-05-18 17:40:00,
2013-05-18 12:45:00,79.0,69.5,29.80,SSE,157,6.9,14.1,73,-99.99,,,0.00,wxRedirect v1.1,2013-05-18 17:45:00,
2013-05-18 12:50:00,79.0,69.9,29.80,SSE,157,9.8,9.8,74,-99.99,,,0.00,wxRedirect v1.1,2013-05-18 17:50:00,
2013-05-18 12:56:00,79.0,69.9,29.80,SE,135,4.7,9.8,74,-99.99,,,0.00,wxRedirect v1.1,2013-05-18 17:56:00,
2013-05-18 13:01:00,79.0,69.5,29.80,SSE,157,1.1,9.8,73,-99.99,,,0.00,wxRedirect v1.1,2013-05-18 18:01:00,
2013-05-18 13:06:00,79.0,69.2,29.79,SE,135,4.5,4.9,72,-99.99,,,0.00,wxRedirect v1.1,2013-05-18 18:06:00,
2013-05-18 13:11:00,79.0,69.2,29.79,SSE,157,2.2,4.9,72,-99.99,,,0.00,wxRedirect v1.1,2013-05-18 18:11:00,
2013-05-18 13:16:00,79.2,69.3,29.79,SE,135,2.7,2.7,72,-99.99,,,0.00,wxRedirect v1.1,2013-05-18 18:16:00,
2013-05-18 13:22:00,79.0,69.2,29.79,SSE,157,3.1,3.6,72,-99.99,,,0.00,wxRedirect v1.1,2013-05-18 18:22:00,
2013-05-18 13:27:00,79.0,69.2,29.78,SSE,157,6.3,6.3,72,-99.99,,,0.00,wxRedirect v1.1,2013-05-18 18:27:00,
2013-05-18 13:32:00,79.2,69.3,29.78,ESE,112,4.9,6.3,72,-99.99,,,0.00,wxRedirect v1.1,2013-05-18 18:32:00,
2013-05-18 13:38:00,79.2,69.3,29.78,SE,135,0.0,7.4,72,-99.99,,,0.00,wxRedirect v1.1,2013-05-18 18:38:00,
2013-05-18 13:43:00,79.3,69.5,29.77,ESE,112,3.1,7.4,72,-99.99,,,0.00,wxRedirect v1.1,2013-05-18 18:43:00,
2013-05-18 13:49:00,79.5,69.7,29.77,East,90,1.6,3.8,72,-99.99,,,0.00,wxRedirect v1.1,2013-05-18 18:49:00,
2013-05-18 13:54:00,79.7,69.9,29.78,SSE,157,4.0,4.9,72,-99.99,,,0.00,wxRedirect v1.1,2013-05-18 18:54:00,
2013-05-18 13:59:00,79.7,69.9,29.78,SSE,157,3.1,6.0,72,-99.99,,,0.00,wxRedirect v1.1,2013-05-18 18:59:00,
2013-05-18 14:04:00,79.9,69.7,29.77,ESE,112,3.4,6.0,71,-99.99,,,0.00,wxRedirect v1.1,2013-05-18 19:04:00,
2013-05-18 14:09:00,79.9,69.7,29.77,North,-999,-999.0,-999.0,75,-99.99,,,0.00,wxRedirect v1.1,2013-05-18 19:09:00,
2013-05-18 14:15:00,80.4,70.2,29.76,North,-999,-999.0,-999.0,71,0.02,,,0.02,wxRedirect v1.1,2013-05-18 19:15:00,
2013-05-18 14:20:00,80.4,69.8,29.76,ESE,112,2.9,4.5,70,0.04,,,0.04,wxRedirect v1.1,2013-05-18 19:20:00,
2013-05-18 14:25:00,80.4,69.8,29.76,SSE,157,2.7,4.5,70,0.04,,,0.04,wxRedirect v1.1,2013-05-18 19:25:00,
2013-05-18 14:30:00,80.2,69.6,29.76,SSE,157,4.9,4.9,70,0.04,,,0.04,wxRedirect v1.1,2013-05-18 19:30:00,
2013-05-18 14:36:00,80.2,69.6,29.76,SSE,157,1.6,4.9,70,0.04,,,0.04,wxRedirect v1.1,2013-05-18 19:36:00,
2013-05-18 14:41:00,80.2,69.6,29.75,SE,135,2.9,13.6,70,0.04,,,0.04,wxRedirect v1.1,2013-05-18 19:41:00,
2013-05-18 14:46:00,80.2,69.6,29.75,ESE,112,2.0,13.6,70,0.04,,,0.04,wxRedirect v1.1,2013-05-18 19:46:00,
2013-05-18 14:52:00,80.4,69.8,29.75,SE,135,4.3,8.7,70,0.04,,,0.04,wxRedirect v1.1,2013-05-18 19:52:00,
2013-05-18 14:57:00,80.6,69.1,29.75,ESE,112,3.6,8.7,68,0.04,,,0.04,wxRedirect v1.1,2013-05-18 19:57:00,
2013-05-18 15:02:00,80.6,69.5,29.75,SE,135,3.1,5.1,69,0.04,,,0.04,wxRedirect v1.1,2013-05-18 20:02:00,
2013-05-18 15:08:00,80.8,70.1,29.75,SSE,157,4.0,8.1,70,0.04,,,0.04,wxRedirect v1.1,2013-05-18 20:08:00,
2013-05-18 15:13:00,81.0,69.9,29.75,SSE,157,4.3,8.1,69,0.02,,,0.04,wxRedirect v1.1,2013-05-18 20:13:00,
2013-05-18 15:18:00,81.0,69.9,29.75,SSE,157,6.9,7.8,69,0.00,,,0.04,wxRedirect v1.1,2013-05-18 20:18:00,
2013-05-18 15:24:00,81.1,70.0,29.76,SSE,157,2.7,6.9,69,0.00,,,0.04,wxRedirect v1.1,2013-05-18 20:24:00,
2013-05-18 15:29:00,81.1,70.0,29.76,SE,135,5.1,6.0,69,0.00,,,0.04,wxRedirect v1.1,2013-05-18 20:29:00,
2013-05-18 15:34:00,81.1,70.0,29.75,SSE,157,0.0,8.7,69,0.00,,,0.04,wxRedirect v1.1,2013-05-18 20:34:00,
2013-05-18 15:40:00,81.1,70.0,29.75,ESE,112,2.9,8.7,69,0.00,,,0.04,wxRedirect v1.1,2013-05-18 20:40:00,
2013-05-18 15:45:00,81.3,70.2,29.75,ESE,112,2.9,6.0,69,0.00,,,0.04,wxRedirect v1.1,2013-05-18 20:45:00,
2013-05-18 15:50:00,81.7,70.5,29.75,ESE,112,3.6,6.0,69,0.00,,,0.04,wxRedirect v1.1,2013-05-18 20:50:00,
2013-05-18 15:55:00,82.0,70.8,29.74,North,-999,-999.0,-999.0,69,0.00,,,0.04,wxRedirect v1.1,2013-05-18 20:55:00,
2013-05-18 16:01:00,82.2,70.5,29.74,SE,135,3.4,4.9,68,0.00,,,0.04,wxRedirect v1.1,2013-05-18 21:01:00,
2013-05-18 16:07:00,82.2,71.0,29.74,South,180,7.6,7.6,69,0.00,,,0.04,wxRedirect v1.1,2013-05-18 21:07:00,
2013-05-18 16:12:00,82.2,71.0,29.76,SSE,157,0.0,7.6,69,0.00,,,0.04,wxRedirect v1.1,2013-05-18 21:12:00,
2013-05-18 16:17:00,82.6,70.9,29.73,ESE,112,4.7,7.6,68,0.00,,,0.04,wxRedirect v1.1,2013-05-18 21:17:00,
2013-05-18 16:22:00,82.6,70.9,29.74,ESE,112,3.4,7.2,68,0.00,,,0.04,wxRedirect v1.1,2013-05-18 21:22:00,
2013-05-18 16:28:00,82.6,70.9,29.75,South,180,3.6,7.2,68,0.00,,,0.04,wxRedirect v1.1,2013-05-18 21:28:00,
2013-05-18 16:33:00,82.6,70.9,29.75,SSE,157,4.9,7.2,68,0.00,,,0.04,wxRedirect v1.1,2013-05-18 21:33:00,
2013-05-18 16:38:00,82.8,71.1,29.74,SSE,157,6.7,6.9,68,0.00,,,0.04,wxRedirect v1.1,2013-05-18 21:38:00,
2013-05-18 16:44:00,82.9,71.2,29.74,SE,135,4.3,6.9,68,0.00,,,0.04,wxRedirect v1.1,2013-05-18 21:44:00,
2013-05-18 16:49:00,82.9,71.2,29.73,SSE,157,10.7,10.7,68,0.00,,,0.04,wxRedirect v1.1,2013-05-18 21:49:00,
2013-05-18 16:54:00,82.9,70.8,29.73,SSE,157,12.8,13.2,67,0.00,,,0.04,wxRedirect v1.1,2013-05-18 21:54:00,
2013-05-18 16:59:00,82.9,70.8,29.73,SSE,157,12.8,13.2,67,0.00,,,0.04,wxRedirect v1.1,2013-05-18 21:59:00,
2013-05-18 17:05:00,82.9,70.8,29.73,SE,135,3.4,12.8,67,0.00,,,0.04,wxRedirect v1.1,2013-05-18 22:05:00,
2013-05-18 17:10:00,82.9,71.2,29.73,SSE,157,4.0,9.4,68,0.00,,,0.04,wxRedirect v1.1,2013-05-18 22:10:00,
2013-05-18 17:15:00,83.1,71.4,29.72,SSE,157,6.0,6.0,68,0.00,,,0.04,wxRedirect v1.1,2013-05-18 22:15:00,
2013-05-18 17:20:00,83.3,71.6,29.73,SSE,157,6.0,6.0,68,0.00,,,0.04,wxRedirect v1.1,2013-05-18 22:20:00,
2013-05-18 17:25:00,83.1,71.4,29.72,SE,135,8.3,8.3,68,0.00,,,0.04,wxRedirect v1.1,2013-05-18 22:25:00,
2013-05-18 17:31:00,83.1,71.4,29.72,SE,135,7.6,18.1,68,0.00,,,0.04,wxRedirect v1.1,2013-05-18 22:31:00,
2013-05-18 17:36:00,83.1,71.4,29.71,SSE,157,6.9,18.1,68,0.00,,,0.04,wxRedirect v1.1,2013-05-18 22:36:00,
2013-05-18 17:41:00,83.1,71.0,29.71,SE,135,8.9,13.0,67,0.00,,,0.04,wxRedirect v1.1,2013-05-18 22:41:00,
2013-05-18 17:47:00,83.1,70.5,29.71,SE,135,7.4,13.0,66,0.00,,,0.04,wxRedirect v1.1,2013-05-18 22:47:00,
2013-05-18 17:52:00,83.1,70.5,29.70,SE,135,8.3,12.5,66,0.00,,,0.04,wxRedirect v1.1,2013-05-18 22:52:00,
2013-05-18 17:58:00,83.1,70.5,29.70,SE,135,6.9,12.5,66,0.00,,,0.04,wxRedirect v1.1,2013-05-18 22:58:00,
2013-05-18 18:03:00,82.9,70.3,29.69,SE,135,5.4,8.3,66,0.00,,,0.04,wxRedirect v1.1,2013-05-18 23:03:00,
2013-05-18 18:08:00,82.9,70.8,29.68,SE,135,11.6,11.6,67,0.00,,,0.04,wxRedirect v1.1,2013-05-18 23:08:00,
2013-05-18 18:14:00,82.8,70.6,29.67,SSE,157,8.1,11.6,67,0.00,,,0.04,wxRedirect v1.1,2013-05-18 23:14:00,
2013-05-18 18:20:00,82.8,71.1,29.67,SE,135,6.7,11.6,68,0.00,,,0.04,wxRedirect v1.1,2013-05-18 23:20:00,
2013-05-18 18:25:00,82.6,70.9,29.66,SE,135,9.2,9.2,68,0.00,,,0.04,wxRedirect v1.1,2013-05-18 23:25:00,
2013-05-18 18:30:00,82.4,70.7,29.66,SE,135,21.0,21.0,68,0.00,,,0.04,wxRedirect v1.1,2013-05-18 23:30:00,
2013-05-18 18:36:00,82.2,70.5,29.65,SE,135,8.1,21.0,68,0.00,,,0.04,wxRedirect v1.1,2013-05-18 23:36:00,
2013-05-18 18:41:00,82.2,71.0,29.65,SE,135,10.7,21.0,69,0.00,,,0.04,wxRedirect v1.1,2013-05-18 23:41:00,
2013-05-18 18:47:00,82.4,71.2,29.65,SE,135,9.2,10.7,69,0.00,,,0.04,wxRedirect v1.1,2013-05-18 23:47:00,
2013-05-18 18:53:00,82.4,71.2,29.65,SSE,157,5.8,10.7,69,0.00,,,0.04,wxRedirect v1.1,2013-05-18 23:53:00,
2013-05-18 18:58:00,82.6,71.3,29.66,SSE,157,8.7,9.2,69,0.00,,,0.04,wxRedirect v1.1,2013-05-18 23:58:00,
2013-05-18 19:03:00,82.6,70.9,29.67,SE,135,6.5,8.7,68,0.00,,,0.04,wxRedirect v1.1,2013-05-19 00:03:00,
2013-05-18 19:08:00,82.6,70.9,29.68,SSE,157,7.8,8.7,68,0.00,,,0.04,wxRedirect v1.1,2013-05-19 00:08:00,
2013-05-18 19:13:00,82.6,70.9,29.68,SE,135,3.8,7.8,68,0.00,,,0.04,wxRedirect v1.1,2013-05-19 00:13:00,
2013-05-18 19:19:00,82.6,70.9,29.69,SSE,157,13.2,13.2,68,0.00,,,0.04,wxRedirect v1.1,2013-05-19 00:19:00,
2013-05-18 19:24:00,82.6,70.9,29.69,SSE,157,8.7,13.2,68,0.00,,,0.04,wxRedirect v1.1,2013-05-19 00:24:00,
2013-05-18 19:30:00,82.4,70.9,29.68,SE,135,4.0,13.2,72,0.00,,,0.04,wxRedirect v1.1,2013-05-19 00:30:00,
2013-05-18 19:35:00,82.4,70.7,29.68,SE,135,4.0,8.7,68,0.00,,,0.04,wxRedirect v1.1,2013-05-19 00:35:00,
2013-05-18 19:40:00,82.4,70.7,29.68,SE,135,7.4,7.4,68,0.00,,,0.04,wxRedirect v1.1,2013-05-19 00:40:00,
2013-05-18 19:46:00,82.2,70.5,29.69,SE,135,8.3,9.4,68,0.00,,,0.04,wxRedirect v1.1,2013-05-19 00:46:00,
2013-05-18 19:52:00,82.2,71.4,29.68,SE,135,9.8,12.8,70,0.00,,,0.04,wxRedirect v1.1,2013-05-19 00:52:00,
2013-05-18 19:57:00,82.2,71.4,29.68,South,180,3.8,12.8,70,0.00,,,0.04,wxRedirect v1.1,2013-05-19 00:57:00,
2013-05-18 20:02:00,82.0,72.9,29.68,SE,135,4.0,9.8,74,0.00,,,0.04,wxRedirect v1.1,2013-05-19 01:02:00,
2013-05-18 20:08:00,81.9,71.1,29.69,SE,135,4.0,5.8,70,0.00,,,0.04,wxRedirect v1.1,2013-05-19 01:08:00,
2013-05-18 20:13:00,81.7,71.0,29.68,SSE,157,8.3,8.3,70,0.00,,,0.04,wxRedirect v1.1,2013-05-19 01:13:00,
2013-05-18 20:18:00,81.5,70.8,29.69,South,180,8.7,8.7,70,0.00,,,0.04,wxRedirect v1.1,2013-05-19 01:18:00,
2013-05-18 20:23:00,81.3,70.6,29.69,SSE,157,4.9,8.9,70,0.00,,,0.04,wxRedirect v1.1,2013-05-19 01:23:00,
2013-05-18 20:29:00,81.1,70.5,29.68,SE,135,3.8,8.9,70,0.00,,,0.04,wxRedirect v1.1,2013-05-19 01:29:00,
2013-05-18 20:34:00,81.1,70.5,29.68,SE,135,6.0,8.7,70,0.00,,,0.04,wxRedirect v1.1,2013-05-19 01:34:00,
2013-05-18 20:39:00,81.0,70.7,29.69,SSE,157,9.6,9.6,71,0.00,,,0.04,wxRedirect v1.1,2013-05-19 01:39:00,
2013-05-18 20:45:00,80.8,70.9,29.70,SE,135,4.9,9.6,72,0.00,,,0.04,wxRedirect v1.1,2013-05-19 01:45:00,
2013-05-18 20:50:00,80.6,71.2,29.70,SSE,157,4.9,9.6,73,0.00,,,0.04,wxRedirect v1.1,2013-05-19 01:50:00,
2013-05-18 20:56:00,80.4,71.4,29.70,South,180,7.4,7.4,74,0.00,,,0.04,wxRedirect v1.1,2013-05-19 01:56:00,
2013-05-18 21:01:00,80.2,71.2,29.71,SSE,157,6.5,7.4,74,0.00,,,0.04,wxRedirect v1.1,2013-05-19 02:01:00,
2013-05-18 21:07:00,79.9,71.2,29.72,SSE,157,9.8,9.8,75,0.00,,,0.04,wxRedirect v1.1,2013-05-19 02:07:00,
2013-05-18 21:12:00,79.9,71.2,29.72,SSE,157,8.3,9.8,75,0.00,,,0.04,wxRedirect v1.1,2013-05-19 02:12:00,
2013-05-18 21:17:00,79.9,71.6,29.72,SSE,157,13.2,13.2,76,0.00,,,0.04,wxRedirect v1.1,2013-05-19 02:17:00,
2013-05-18 21:23:00,79.7,71.5,29.71,South,180,13.0,13.2,76,0.00,,,0.04,wxRedirect v1.1,2013-05-19 02:23:00,
2013-05-18 21:28:00,79.7,71.5,29.72,SSE,157,5.6,13.2,76,0.00,,,0.04,wxRedirect v1.1,2013-05-19 02:28:00,
2013-05-18 21:33:00,79.5,71.3,29.72,SSE,157,6.9,13.0,76,0.00,,,0.04,wxRedirect v1.1,2013-05-19 02:33:00,
2013-05-18 21:39:00,79.5,70.9,29.73,South,180,9.8,9.8,75,0.00,,,0.04,wxRedirect v1.1,2013-05-19 02:39:00,
2013-05-18 21:44:00,79.5,70.5,29.73,SSW,202,13.9,13.9,74,0.00,,,0.04,wxRedirect v1.1,2013-05-19 02:44:00,
2013-05-18 21:49:00,79.5,70.5,29.73,SSE,157,7.8,13.9,74,0.00,,,0.04,wxRedirect v1.1,2013-05-19 02:49:00,
2013-05-18 21:55:00,79.5,70.1,29.74,South,180,11.6,11.6,73,0.00,,,0.04,wxRedirect v1.1,2013-05-19 02:55:00,
2013-05-18 22:00:00,79.5,70.1,29.76,West,270,2.7,11.6,73,0.00,,,0.04,wxRedirect v1.1,2013-05-19 03:00:00,
2013-05-18 22:05:00,79.3,69.5,29.77,NW,315,8.5,9.6,72,0.00,,,0.04,wxRedirect v1.1,2013-05-19 03:05:00,
2013-05-18 22:11:00,78.6,64.1,29.76,NW,315,4.5,8.5,72,0.00,,,0.04,wxRedirect v1.1,2013-05-19 03:11:00,
2013-05-18 22:16:00,78.6,62.6,29.76,NNW,337,4.5,8.5,58,0.00,,,0.04,wxRedirect v1.1,2013-05-19 03:16:00,
2013-05-18 22:21:00,77.7,61.8,29.77,NNW,337,4.5,5.1,58,0.00,,,0.04,wxRedirect v1.1,2013-05-19 03:21:00,
2013-05-18 22:26:00,77.0,61.1,29.77,North,0,3.1,5.1,58,0.00,,,0.04,wxRedirect v1.1,2013-05-19 03:26:00,
2013-05-18 22:31:00,76.8,61.4,29.76,NNE,22,4.9,6.5,59,0.00,,,0.04,wxRedirect v1.1,2013-05-19 03:31:00,
2013-05-18 22:36:00,76.1,60.7,29.78,NNE,22,0.0,6.5,59,0.00,,,0.04,wxRedirect v1.1,2013-05-19 03:36:00,
2013-05-18 22:42:00,75.9,60.6,29.77,North,0,6.0,6.0,59,0.00,,,0.04,wxRedirect v1.1,2013-05-19 03:42:00,
2013-05-18 22:47:00,75.4,60.1,29.76,North,0,0.0,10.1,59,0.00,,,0.04,wxRedirect v1.1,2013-05-19 03:47:00,
2013-05-18 22:52:00,75.0,60.3,29.77,NNE,22,0.0,10.1,60,0.00,,,0.04,wxRedirect v1.1,2013-05-19 03:52:00,
2013-05-18 22:58:00,74.5,59.7,29.77,NE,45,4.5,4.5,60,0.00,,,0.04,wxRedirect v1.1,2013-05-19 03:58:00,
2013-05-18 23:01:00,74.5,59.7,29.76,NNE,22,3.6,4.5,60,0.00,,,0.04,wxRedirect v1.1,2013-05-19 04:01:00,
2013-05-18 23:02:00,74.5,59.7,29.76,NNE,22,3.6,4.5,60,0.00,,,0.04,wxRedirect v1.1,2013-05-19 04:02:00,
2013-05-18 23:03:00,74.5,59.7,29.76,NNE,22,3.6,4.5,60,0.00,,,0.04,wxRedirect v1.1,2013-05-19 04:03:00,
2013-05-18 23:06:00,73.9,59.2,29.77,ESE,112,0.0,4.5,60,0.00,,,0.04,wxRedirect v1.1,2013-05-19 04:06:00,
2013-05-18 23:12:00,73.2,58.5,29.77,NE,45,0.0,3.6,60,0.00,,,0.04,wxRedirect v1.1,2013-05-19 04:12:00,
2013-05-18 23:17:00,72.7,58.4,29.76,ENE,67,2.9,3.1,61,0.00,,,0.04,wxRedirect v1.1,2013-05-19 04:17:00,
2013-05-18 23:22:00,72.5,58.7,29.75,ENE,67,2.7,3.1,62,0.00,,,0.04,wxRedirect v1.1,2013-05-19 04:22:00,
2013-05-18 23:28:00,72.5,58.7,29.75,ENE,67,2.9,2.9,62,0.00,,,0.04,wxRedirect v1.1,2013-05-19 04:28:00,
2013-05-18 23:33:00,72.5,58.7,29.75,East,90,4.9,4.9,62,0.00,,,0.04,wxRedirect v1.1,2013-05-19 04:33:00,
2013-05-18 23:38:00,71.8,58.0,29.75,ENE,67,4.3,4.9,66,0.00,,,0.04,wxRedirect v1.1,2013-05-19 04:38:00,
2013-05-18 23:43:00,71.4,58.1,29.75,NE,45,5.1,5.1,63,0.00,,,0.04,wxRedirect v1.1,2013-05-19 04:43:00,
2013-05-18 23:49:00,71.4,58.1,29.75,ENE,67,0.7,5.1,63,0.00,,,0.04,wxRedirect v1.1,2013-05-19 04:49:00,
2013-05-18 23:54:00,71.2,58.0,29.74,ENE,67,1.1,5.1,63,0.00,,,0.04,wxRedirect v1.1,2013-05-19 04:54:00,
2013-05-18 23:59:00,71.2,58.4,29.73,East,90,2.5,8.3,64,0.00,,,0.04,wxRedirect v1.1,2013-05-19 04:59:00,